Time;durP1;ratioP1;P1;durP2;ratioP2;P2;SDS_P1;SDS_P2;PMS_P1;PMS_P2;Temp;Humidity;BMP_temperature;BMP_pressure;BME280_temperature;BME280_humidity;BME280_pressure;Samples;Min_cycle;Max_cycle;Signal;HPM_P1;HPM_P2
2022/01/06 00:01:58;;;;;;;4.03;1.60;;;4.50;99.90;;;;;;5069540;28;20734;-66
2022/01/06 00:04:24;;;;;;;5.83;1.30;;;4.50;99.90;;;;;;5071133;28;20201;-67
2022/01/06 00:06:49;;;;;;;6.23;1.87;;;4.50;99.90;;;;;;5071078;28;20201;-67
2022/01/06 00:09:17;;;;;;;4.97;1.97;;;4.50;99.90;;;;;;5074067;28;20186;-67
2022/01/06 00:11:43;;;;;;;4.80;1.20;;;4.50;99.90;;;;;;5071991;28;20250;-66
2022/01/06 00:14:37;;;;;;;5.63;1.73;;;4.40;99.90;;;;;;5072563;28;20659;-67
2022/01/06 00:17:21;;;;;;;4.03;1.70;;;4.40;99.90;;;;;;5066160;28;20268;-67
2022/01/06 00:23:19;;;;;;;4.73;1.43;;;4.40;99.90;;;;;;5071977;28;20580;-67
2022/01/06 00:25:19;;;;;;;4.97;1.70;;;4.40;99.90;;;;;;5074413;28;20216;-67
2022/01/06 00:27:45;;;;;;;2.13;1.30;;;4.30;99.90;;;;;;5075255;28;20202;-68
2022/01/06 00:30:10;;;;;;;10.23;1.70;;;4.20;99.90;;;;;;5078265;28;20209;-72
2022/01/06 00:32:36;;;;;;;13.47;2.10;;;4.10;99.90;;;;;;5073106;28;20205;-69
2022/01/06 00:35:02;;;;;;;4.47;1.30;;;4.20;99.90;;;;;;5058787;28;20217;-67
2022/01/06 00:37:28;;;;;;;3.53;1.40;;;4.30;99.90;;;;;;5069200;28;20272;-67
2022/01/06 00:39:53;;;;;;;3.50;1.57;;;4.40;99.90;;;;;;5064012;28;20193;-65
2022/01/06 00:42:19;;;;;;;3.53;1.20;;;4.30;99.90;;;;;;5064913;28;20174;-65
2022/01/06 00:44:44;;;;;;;1.87;1.40;;;4.10;99.90;;;;;;5064177;28;20665;-66
2022/01/06 00:47:10;;;;;;;7.07;2.07;;;3.80;99.90;;;;;;5058023;28;20174;-65
2022/01/06 00:49:35;;;;;;;2.37;1.50;;;3.60;99.90;;;;;;5055761;28;20194;-67
2022/01/06 00:52:01;;;;;;;1.83;1.27;;;3.60;99.90;;;;;;5052122;28;20274;-65
2022/01/06 00:54:26;;;;;;;5.33;1.50;;;3.50;99.90;;;;;;5053865;28;20198;-65
2022/01/06 00:56:52;;;;;;;3.13;1.50;;;3.50;99.90;;;;;;5063181;28;20201;-66
2022/01/06 00:59:17;;;;;;;5.63;1.60;;;3.40;99.90;;;;;;5065320;28;20185;-67
2022/01/06 01:01:43;;;;;;;3.00;1.60;;;3.40;99.90;;;;;;5068261;28;20216;-68
2022/01/06 01:04:08;;;;;;;4.30;1.50;;;3.40;99.90;;;;;;5058328;28;20225;-65
2022/01/06 01:06:34;;;;;;;2.13;1.60;;;3.40;99.90;;;;;;5064556;28;20709;-69
2022/01/06 01:09:02;;;;;;;2.83;1.60;;;3.30;99.90;;;;;;5053762;28;20710;-70
2022/01/06 01:11:28;;;;;;;2.93;1.23;;;3.20;99.90;;;;;;5065637;28;20200;-71
2022/01/06 01:13:55;;;;;;;5.53;1.80;;;3.10;99.90;;;;;;5056794;28;20201;-65
2022/01/06 01:16:30;;;;;;;1.40;1.30;;;3.00;99.90;;;;;;5051723;28;20229;-65
2022/01/06 01:18:57;;;;;;;4.20;1.47;;;2.90;99.90;;;;;;5061481;28;20194;-66
2022/01/06 01:21:28;;;;;;;3.90;1.30;;;2.80;99.90;;;;;;5028994;28;20654;-70
2022/01/06 01:23:58;;;;;;;3.00;1.30;;;2.70;99.90;;;;;;5072330;28;20197;-68
2022/01/06 01:26:25;;;;;;;4.07;1.60;;;2.70;99.90;;;;;;5074577;28;20193;-71
2022/01/06 01:28:52;;;;;;;2.80;1.43;;;2.60;99.90;;;;;;5076190;28;20192;-67
2022/01/06 01:33:49;;;;;;;4.30;1.00;;;2.50;99.90;;;;;;5076225;28;20241;-65
2022/01/06 01:36:15;;;;;;;4.60;1.97;;;2.50;99.90;;;;;;5072327;28;20583;-66
2022/01/06 01:38:41;;;;;;;4.00;1.00;;;2.40;99.90;;;;;;5073748;28;20197;-66
2022/01/06 01:41:08;;;;;;;4.50;1.03;;;2.40;99.90;;;;;;5075179;28;20200;-66
2022/01/06 01:43:34;;;;;;;5.40;1.67;;;2.40;99.90;;;;;;5072333;28;20211;-66
2022/01/06 01:46:11;;;;;;;4.13;1.23;;;2.40;99.90;;;;;;5073624;28;20189;-67
2022/01/06 01:48:40;;;;;;;2.50;1.50;;;2.40;99.90;;;;;;5074156;28;20231;-66
2022/01/06 01:51:08;;;;;;;6.80;1.77;;;2.40;99.90;;;;;;5076342;28;20204;-67
2022/01/06 01:53:35;;;;;;;4.43;1.43;;;2.50;99.90;;;;;;5070404;28;20207;-67
2022/01/06 01:56:03;;;;;;;2.83;1.50;;;2.50;99.90;;;;;;5075250;28;20509;-68
2022/01/06 01:58:29;;;;;;;2.60;1.47;;;2.50;99.90;;;;;;5068934;28;20198;-68
2022/01/06 02:00:54;;;;;;;2.53;1.43;;;2.60;99.90;;;;;;5071028;28;20204;-69
2022/01/06 02:03:20;;;;;;;2.70;1.00;;;2.50;99.90;;;;;;5073759;28;20190;-68
2022/01/06 02:05:45;;;;;;;2.60;1.60;;;2.60;99.90;;;;;;5075845;28;20276;-67
2022/01/06 02:08:11;;;;;;;3.50;1.30;;;2.60;99.90;;;;;;5071849;28;20202;-68
2022/01/06 02:10:37;;;;;;;4.30;1.73;;;2.60;99.90;;;;;;5075476;28;20195;-68
2022/01/06 02:13:03;;;;;;;4.93;1.93;;;2.60;99.90;;;;;;5069730;28;20184;-68
2022/01/06 02:15:29;;;;;;;5.70;1.70;;;2.60;99.90;;;;;;5070251;28;20250;-68
2022/01/06 02:17:54;;;;;;;2.47;1.13;;;2.60;99.90;;;;;;5071224;28;20280;-68
2022/01/06 02:20:22;;;;;;;4.30;1.00;;;2.60;99.90;;;;;;5068093;28;20254;-69
2022/01/06 02:22:49;;;;;;;2.90;1.17;;;2.70;99.90;;;;;;5072507;28;20207;-69
2022/01/06 02:25:21;;;;;;;1.47;1.37;;;2.70;99.90;;;;;;5072387;28;20217;-69
2022/01/06 02:27:51;;;;;;;3.63;1.17;;;2.60;99.90;;;;;;5076132;28;20205;-69
2022/01/06 02:30:18;;;;;;;3.40;1.00;;;2.60;99.90;;;;;;5074177;28;20178;-68
2022/01/06 02:32:44;;;;;;;2.97;1.23;;;2.60;99.90;;;;;;5078734;28;20231;-66
2022/01/06 02:35:18;;;;;;;3.57;1.20;;;2.50;99.90;;;;;;5072740;28;20750;-69
2022/01/06 02:37:44;;;;;;;2.23;0.93;;;2.50;99.90;;;;;;5076960;28;20241;-69
2022/01/06 02:40:15;;;;;;;3.17;1.33;;;2.50;99.90;;;;;;5072614;28;20197;-70
2022/01/06 02:42:43;;;;;;;3.50;1.07;;;2.50;99.90;;;;;;5074059;28;20231;-70
2022/01/06 02:45:10;;;;;;;6.40;1.00;;;2.50;99.90;;;;;;5072508;28;20351;-70
2022/01/06 02:47:35;;;;;;;5.77;1.10;;;2.50;99.90;;;;;;5074022;28;20190;-69
2022/01/06 02:50:01;;;;;;;2.70;0.87;;;2.50;99.90;;;;;;5072760;28;20822;-70
2022/01/06 02:52:26;;;;;;;2.23;0.90;;;2.50;99.90;;;;;;5071933;28;20201;-69
2022/01/06 02:54:52;;;;;;;2.60;1.00;;;2.50;99.90;;;;;;5061481;28;20212;-69
2022/01/06 02:57:17;;;;;;;1.10;1.03;;;2.50;99.90;;;;;;5064889;28;20207;-69
2022/01/06 02:59:43;;;;;;;3.13;1.10;;;2.50;99.90;;;;;;5062387;28;20258;-69
2022/01/06 03:02:09;;;;;;;3.07;1.50;;;2.50;99.90;;;;;;5076971;28;20189;-69
2022/01/06 03:04:34;;;;;;;5.97;1.40;;;2.50;99.90;;;;;;5075012;28;20757;-69
2022/01/06 03:07:01;;;;;;;2.20;1.07;;;2.50;99.90;;;;;;5073840;28;20478;-68
2022/01/06 03:09:36;;;;;;;5.70;1.10;;;2.50;99.90;;;;;;5071309;28;20204;-68
2022/01/06 03:12:05;;;;;;;1.37;1.27;;;2.40;99.90;;;;;;5074068;28;20181;-69
2022/01/06 03:14:32;;;;;;;4.13;1.47;;;2.30;99.90;;;;;;5070915;28;20293;-69
2022/01/06 03:16:58;;;;;;;3.67;1.27;;;2.30;99.90;;;;;;5074781;28;20719;-69
2022/01/06 03:19:23;;;;;;;1.27;0.90;;;2.30;99.90;;;;;;5071452;28;20547;-69
2022/01/06 03:21:49;;;;;;;2.43;0.87;;;2.30;99.90;;;;;;5072692;28;20632;-69
2022/01/06 03:24:16;;;;;;;3.47;1.40;;;2.20;99.90;;;;;;5071775;28;20578;-69
2022/01/06 03:26:41;;;;;;;4.87;2.00;;;2.20;99.90;;;;;;5074174;28;20212;-68
2022/01/06 03:29:07;;;;;;;3.37;1.00;;;2.10;99.90;;;;;;5073172;28;20232;-70
2022/01/06 03:31:32;;;;;;;3.70;1.00;;;2.10;99.90;;;;;;5078208;28;20197;-68
2022/01/06 03:33:58;;;;;;;2.43;0.97;;;2.00;99.90;;;;;;5069427;28;20198;-69
2022/01/06 03:36:23;;;;;;;3.80;1.07;;;2.00;99.90;;;;;;5073674;28;20345;-69
2022/01/06 03:38:49;;;;;;;1.20;0.77;;;1.90;99.90;;;;;;5070925;28;20259;-69
2022/01/06 03:41:14;;;;;;;5.60;0.97;;;2.00;99.90;;;;;;5070839;28;20993;-69
2022/01/06 03:43:40;;;;;;;0.83;0.60;;;1.90;99.90;;;;;;5067734;28;20196;-61
2022/01/06 03:46:05;;;;;;;1.93;1.00;;;1.80;99.90;;;;;;5074283;28;20804;-60
2022/01/06 03:48:31;;;;;;;2.43;0.83;;;1.80;99.90;;;;;;5072426;28;20198;-60
2022/01/06 03:50:56;;;;;;;3.90;1.67;;;1.70;99.90;;;;;;5069825;28;20194;-60
2022/01/06 03:53:22;;;;;;;0.97;0.63;;;1.60;99.90;;;;;;5061053;28;20215;-59
2022/01/06 03:55:47;;;;;;;2.23;0.77;;;1.60;99.90;;;;;;5063408;28;20201;-60
2022/01/06 03:58:13;;;;;;;2.83;0.83;;;1.60;99.90;;;;;;5061260;28;20208;-60
2022/01/06 04:00:38;;;;;;;1.27;0.80;;;1.50;99.90;;;;;;5053892;28;20198;-60
2022/01/06 04:03:04;;;;;;;0.73;0.60;;;1.40;99.90;;;;;;5060455;28;20209;-61
2022/01/06 04:05:31;;;;;;;4.03;0.73;;;1.40;99.90;;;;;;5066595;28;20266;-60
2022/01/06 04:07:57;;;;;;;2.23;0.80;;;1.30;99.90;;;;;;5055796;28;20202;-60
2022/01/06 04:10:22;;;;;;;1.07;0.60;;;1.30;99.90;;;;;;5057500;28;20266;-60
2022/01/06 04:12:48;;;;;;;1.90;0.77;;;1.30;99.90;;;;;;5054772;28;20747;-61
2022/01/06 04:15:14;;;;;;;5.33;1.13;;;1.30;99.90;;;;;;5063108;28;20227;-61
2022/01/06 04:17:42;;;;;;;2.13;0.87;;;1.30;99.90;;;;;;5055475;28;20242;-61
2022/01/06 04:20:08;;;;;;;1.50;0.80;;;1.20;99.90;;;;;;5058712;28;20196;-62
2022/01/06 04:22:34;;;;;;;3.77;0.70;;;1.10;99.90;;;;;;5056646;28;20206;-60
2022/01/06 04:25:00;;;;;;;2.10;0.87;;;1.10;99.90;;;;;;5055178;28;20215;-60
2022/01/06 04:27:26;;;;;;;1.50;1.20;;;1.10;99.90;;;;;;5057038;28;20205;-60
2022/01/06 04:29:52;;;;;;;4.90;0.80;;;1.10;99.90;;;;;;5057665;28;20235;-61
2022/01/06 04:32:17;;;;;;;1.03;0.60;;;1.10;99.90;;;;;;5062408;28;20209;-62
2022/01/06 04:34:43;;;;;;;2.00;0.97;;;1.10;99.90;;;;;;5054117;28;20185;-62
2022/01/06 04:37:08;;;;;;;1.23;0.70;;;1.00;99.90;;;;;;5059188;28;20272;-62
2022/01/06 04:39:34;;;;;;;2.27;0.90;;;1.00;99.90;;;;;;5058291;28;20207;-62
2022/01/06 04:41:59;;;;;;;4.13;1.00;;;0.90;99.90;;;;;;5060959;28;20560;-61
2022/01/06 04:44:25;;;;;;;0.40;0.40;;;0.90;99.90;;;;;;5056955;28;20571;-62
2022/01/06 04:46:50;;;;;;;2.67;1.87;;;0.90;99.90;;;;;;5062408;28;20212;-61
2022/01/06 04:49:16;;;;;;;2.30;0.80;;;0.80;99.90;;;;;;5054011;28;20621;-61
2022/01/06 04:51:41;;;;;;;1.70;0.80;;;0.80;99.90;;;;;;5064312;28;20688;-61
2022/01/06 04:54:07;;;;;;;0.70;0.70;;;0.80;99.90;;;;;;5043907;28;20206;-62
2022/01/06 04:56:36;;;;;;;0.63;0.60;;;0.80;99.90;;;;;;5063903;28;20831;-62
2022/01/06 04:59:07;;;;;;;2.23;0.60;;;0.80;99.90;;;;;;5053301;28;20191;-62
2022/01/06 05:01:33;;;;;;;4.90;1.00;;;0.80;99.90;;;;;;5057617;28;20203;-62
2022/01/06 05:03:58;;;;;;;3.97;1.00;;;0.80;99.90;;;;;;5053216;28;20209;-63
2022/01/06 05:06:24;;;;;;;2.20;0.90;;;0.70;99.90;;;;;;5064630;28;20235;-61
2022/01/06 05:08:49;;;;;;;1.90;1.00;;;0.70;99.90;;;;;;5058761;28;20206;-62
2022/01/06 05:11:15;;;;;;;1.27;0.90;;;0.70;99.90;;;;;;5063395;28;20611;-62
2022/01/06 05:13:40;;;;;;;2.03;1.20;;;0.70;99.90;;;;;;5056461;28;20197;-61
2022/01/06 05:16:06;;;;;;;1.07;0.73;;;0.70;99.90;;;;;;5067773;28;20583;-61
2022/01/06 05:18:31;;;;;;;1.47;0.90;;;0.70;99.90;;;;;;5056395;28;20203;-61
2022/01/06 05:20:57;;;;;;;1.90;0.77;;;0.60;99.90;;;;;;5067214;28;20208;-62
2022/01/06 05:23:22;;;;;;;2.07;1.00;;;0.60;99.90;;;;;;5060246;28;20208;-61
2022/01/06 05:25:48;;;;;;;4.80;1.07;;;0.60;99.90;;;;;;5066753;28;20210;-62
2022/01/06 05:28:13;;;;;;;2.50;0.83;;;0.60;99.90;;;;;;5062979;28;20735;-61
2022/01/06 05:30:39;;;;;;;1.17;0.70;;;0.60;99.90;;;;;;5066806;28;20200;-61
2022/01/06 05:33:04;;;;;;;0.67;0.60;;;0.60;99.90;;;;;;5065332;28;20222;-61
2022/01/06 05:35:30;;;;;;;2.73;1.00;;;0.50;99.90;;;;;;5060481;28;20262;-62
2022/01/06 05:37:55;;;;;;;0.70;0.70;;;0.50;99.90;;;;;;5055968;28;20234;-62
2022/01/06 05:40:21;;;;;;;1.40;0.70;;;0.50;99.90;;;;;;5058655;28;20203;-62
2022/01/06 05:42:48;;;;;;;1.50;0.73;;;0.50;99.90;;;;;;5055032;28;20185;-62
2022/01/06 05:45:15;;;;;;;3.03;1.30;;;0.50;99.90;;;;;;5065294;28;20208;-62
2022/01/06 05:47:41;;;;;;;1.23;0.90;;;0.40;99.90;;;;;;5054583;28;20184;-62
2022/01/06 05:50:08;;;;;;;2.70;0.90;;;0.40;99.90;;;;;;5063750;28;20199;-62
2022/01/06 05:52:34;;;;;;;1.43;0.80;;;0.40;99.90;;;;;;5056941;28;20242;-62
2022/01/06 05:55:00;;;;;;;6.80;1.20;;;0.50;99.90;;;;;;5065322;28;20198;-62
2022/01/06 05:57:25;;;;;;;2.90;1.00;;;0.50;99.90;;;;;;5054948;28;20193;-62
2022/01/06 05:59:51;;;;;;;2.40;1.10;;;0.50;99.90;;;;;;5061512;28;20570;-62
2022/01/06 06:02:16;;;;;;;6.43;1.30;;;0.50;99.90;;;;;;5057749;28;20415;-62
2022/01/06 06:04:42;;;;;;;3.87;1.33;;;0.40;99.90;;;;;;5066415;28;20215;-61
2022/01/06 06:07:07;;;;;;;2.37;0.80;;;0.40;99.90;;;;;;5048989;28;20219;-62
2022/01/06 06:09:33;;;;;;;4.33;1.73;;;0.40;99.90;;;;;;5066662;28;20203;-62
2022/01/06 06:11:58;;;;;;;7.10;1.20;;;0.40;99.90;;;;;;5056647;28;20675;-62
2022/01/06 06:14:24;;;;;;;1.80;1.20;;;0.50;99.90;;;;;;5066012;28;20577;-61
2022/01/06 06:16:49;;;;;;;2.17;1.70;;;0.40;99.90;;;;;;5052016;28;20238;-61
2022/01/06 06:19:15;;;;;;;7.83;1.27;;;0.40;99.90;;;;;;5065686;28;20196;-62
2022/01/06 06:21:40;;;;;;;3.90;1.30;;;0.40;99.90;;;;;;5052529;28;20205;-61
2022/01/06 06:24:06;;;;;;;1.60;1.10;;;0.30;99.90;;;;;;5065552;28;20277;-61
2022/01/06 06:26:31;;;;;;;4.57;1.37;;;0.30;99.90;;;;;;5051410;28;20196;-61
2022/01/06 06:28:57;;;;;;;5.03;1.50;;;0.30;99.90;;;;;;5065779;28;20643;-61
2022/01/06 06:31:23;;;;;;;4.07;1.47;;;0.30;99.90;;;;;;5052935;28;20647;-60
2022/01/06 06:33:48;;;;;;;1.90;1.00;;;0.30;99.90;;;;;;5065917;28;20299;-60
2022/01/06 06:36:14;;;;;;;5.50;1.53;;;0.30;99.90;;;;;;5051515;28;20217;-61
2022/01/06 06:38:39;;;;;;;4.87;2.00;;;0.30;99.90;;;;;;5065381;28;20200;-61
2022/01/06 06:41:05;;;;;;;3.03;1.40;;;0.30;99.90;;;;;;5055864;28;20201;-61
2022/01/06 06:43:30;;;;;;;2.97;1.13;;;0.30;99.90;;;;;;5064488;28;20288;-62
2022/01/06 06:45:55;;;;;;;7.30;1.53;;;0.20;99.90;;;;;;5064057;28;20282;-61
2022/01/06 06:48:22;;;;;;;10.17;1.80;;;0.20;99.90;;;;;;5065325;28;20288;-62
2022/01/06 06:50:48;;;;;;;3.23;1.50;;;0.20;99.90;;;;;;5056619;28;20228;-61
2022/01/06 06:53:13;;;;;;;4.30;1.63;;;0.30;99.90;;;;;;5060622;28;20183;-62
2022/01/06 06:55:39;;;;;;;1.73;1.30;;;0.20;99.90;;;;;;5058041;28;20243;-61
2022/01/06 06:58:04;;;;;;;5.87;1.73;;;0.30;99.90;;;;;;5055909;28;20189;-61
2022/01/06 07:00:30;;;;;;;4.77;1.27;;;0.20;99.90;;;;;;5058482;28;20782;-61
2022/01/06 07:02:55;;;;;;;3.83;1.20;;;0.20;99.90;;;;;;5046002;28;20172;-61
2022/01/06 07:05:21;;;;;;;3.97;1.67;;;0.20;99.90;;;;;;5062426;28;20203;-61
2022/01/06 07:07:47;;;;;;;2.17;1.33;;;0.20;99.90;;;;;;5054697;28;20231;-61
2022/01/06 07:10:13;;;;;;;4.00;1.63;;;0.20;99.90;;;;;;5060748;28;20222;-61
2022/01/06 07:12:43;;;;;;;5.93;1.67;;;0.20;99.90;;;;;;5055685;28;20190;-61
2022/01/06 07:15:10;;;;;;;5.27;1.80;;;0.20;99.90;;;;;;5061875;28;20286;-61
2022/01/06 07:17:36;;;;;;;3.33;1.77;;;0.20;99.90;;;;;;5050660;28;20245;-62
2022/01/06 07:20:03;;;;;;;4.37;1.67;;;0.20;99.90;;;;;;5063221;28;20201;-61
2022/01/06 07:22:29;;;;;;;3.37;2.40;;;0.20;99.90;;;;;;5052595;28;20734;-62
2022/01/06 07:24:54;;;;;;;1.90;1.20;;;0.20;99.90;;;;;;5065278;28;20307;-63
2022/01/06 07:27:20;;;;;;;4.10;1.40;;;0.20;99.90;;;;;;5051914;28;20274;-61
2022/01/06 07:29:45;;;;;;;1.80;1.53;;;0.20;99.90;;;;;;5064442;28;20574;-71
2022/01/06 07:32:11;;;;;;;6.07;2.30;;;0.20;99.90;;;;;;5046695;28;20287;-61
2022/01/06 07:34:36;;;;;;;3.17;1.20;;;0.20;99.90;;;;;;5064904;28;20292;-61
2022/01/06 07:37:03;;;;;;;1.47;1.30;;;0.30;99.90;;;;;;5048477;28;20239;-61
2022/01/06 07:39:28;;;;;;;2.23;1.00;;;0.30;99.90;;;;;;5065229;28;20208;-61
2022/01/06 07:41:54;;;;;;;4.33;1.50;;;0.30;99.90;;;;;;5047610;28;20277;-61
2022/01/06 07:44:19;;;;;;;2.40;1.13;;;0.30;99.90;;;;;;5064584;28;20258;-61
2022/01/06 07:46:46;;;;;;;3.90;1.63;;;0.30;99.90;;;;;;5056808;28;20287;-61
2022/01/06 07:49:12;;;;;;;4.17;1.90;;;0.40;99.90;;;;;;5062461;28;20198;-61
2022/01/06 07:51:37;;;;;;;3.00;1.37;;;0.30;99.90;;;;;;5054552;28;20205;-61
2022/01/06 07:54:03;;;;;;;7.67;1.67;;;0.40;99.90;;;;;;5064400;28;20192;-61
2022/01/06 07:56:29;;;;;;;4.83;1.37;;;0.40;99.90;;;;;;5055416;28;20296;-61
2022/01/06 07:58:55;;;;;;;4.40;2.17;;;0.40;99.90;;;;;;5065397;28;20219;-61
2022/01/06 08:01:20;;;;;;;5.23;1.63;;;0.30;99.90;;;;;;5051402;28;20248;-61
2022/01/06 08:03:46;;;;;;;5.03;2.37;;;0.40;99.90;;;;;;5063936;28;20221;-61
2022/01/06 08:06:12;;;;;;;2.87;2.13;;;0.40;99.90;;;;;;5050340;28;20254;-61
2022/01/06 08:08:38;;;;;;;4.07;1.73;;;0.40;99.90;;;;;;5064935;28;20198;-61
2022/01/06 08:11:04;;;;;;;2.17;1.43;;;0.40;99.90;;;;;;5054298;28;20197;-62
2022/01/06 08:13:30;;;;;;;6.33;2.00;;;0.40;99.90;;;;;;5064935;28;20199;-64
2022/01/06 08:15:56;;;;;;;3.60;1.60;;;0.40;99.90;;;;;;5058837;28;20297;-62
2022/01/06 08:18:21;;;;;;;7.70;2.00;;;0.40;99.90;;;;;;5064516;28;20203;-62
2022/01/06 08:20:47;;;;;;;4.73;1.80;;;0.50;99.90;;;;;;5054215;28;20208;-63
2022/01/06 08:23:13;;;;;;;8.90;1.87;;;0.50;99.90;;;;;;5054295;28;20215;-63
2022/01/06 08:25:38;;;;;;;3.30;1.70;;;0.50;99.90;;;;;;5064123;28;20281;-63
2022/01/06 08:28:04;;;;;;;3.10;1.73;;;0.50;99.90;;;;;;5062784;28;20281;-63
2022/01/06 08:30:30;;;;;;;5.80;1.50;;;0.50;99.90;;;;;;5064684;28;20192;-62
2022/01/06 08:32:56;;;;;;;2.87;1.30;;;0.60;99.90;;;;;;5051935;28;20209;-62
2022/01/06 08:35:25;;;;;;;2.53;1.20;;;0.60;99.90;;;;;;5057217;28;20209;-62
2022/01/06 08:37:50;;;;;;;5.53;1.10;;;0.60;99.90;;;;;;5047924;28;20181;-62
2022/01/06 08:40:16;;;;;;;4.23;1.43;;;0.70;99.90;;;;;;5062639;28;20550;-61
2022/01/06 08:42:42;;;;;;;3.53;1.60;;;0.70;99.90;;;;;;5050065;28;20214;-62
2022/01/06 08:45:08;;;;;;;2.47;1.63;;;0.70;99.90;;;;;;5059213;28;23004;-61
2022/01/06 08:47:34;;;;;;;3.07;1.23;;;0.70;99.90;;;;;;5057057;28;20235;-61
2022/01/06 08:49:59;;;;;;;1.33;1.20;;;0.80;99.90;;;;;;5064088;28;20198;-62
2022/01/06 08:52:26;;;;;;;4.50;1.80;;;0.80;99.90;;;;;;5054964;28;20180;-61
2022/01/06 08:54:51;;;;;;;2.60;1.40;;;0.80;99.90;;;;;;5049218;28;20698;-61
2022/01/06 08:57:18;;;;;;;4.90;2.10;;;0.90;99.90;;;;;;5067038;28;20196;-61
2022/01/06 08:59:44;;;;;;;5.67;1.23;;;0.90;99.90;;;;;;5062627;28;20208;-61
2022/01/06 09:02:09;;;;;;;3.00;1.13;;;0.90;99.90;;;;;;5058143;28;20235;-61
2022/01/06 09:04:35;;;;;;;4.53;1.40;;;1.00;99.90;;;;;;5061305;28;20266;-61
2022/01/06 09:07:02;;;;;;;4.47;1.63;;;1.10;99.90;;;;;;5061061;28;20210;-61
2022/01/06 09:09:32;;;;;;;2.97;1.50;;;1.10;99.90;;;;;;5064297;28;20204;-61
2022/01/06 09:11:57;;;;;;;6.17;1.20;;;1.10;99.90;;;;;;5054807;28;20203;-61
2022/01/06 09:14:23;;;;;;;3.80;1.50;;;1.10;99.90;;;;;;5063422;28;20292;-62
2022/01/06 09:16:49;;;;;;;2.10;1.20;;;1.20;99.90;;;;;;5060690;28;20223;-62
2022/01/06 09:19:15;;;;;;;3.07;1.30;;;1.20;99.90;;;;;;5064084;28;20225;-62
2022/01/06 09:21:40;;;;;;;3.27;1.60;;;1.20;99.90;;;;;;5057740;28;20238;-61
2022/01/06 09:24:07;;;;;;;4.10;1.27;;;1.20;99.90;;;;;;5067535;28;20331;-61
2022/01/06 09:26:36;;;;;;;2.90;1.23;;;1.30;99.90;;;;;;5052538;28;20200;-61
2022/01/06 09:29:04;;;;;;;7.83;1.50;;;1.30;99.90;;;;;;5067120;28;20205;-61
2022/01/06 09:31:30;;;;;;;6.53;3.07;;;1.30;99.90;;;;;;5055127;28;20208;-61
2022/01/06 09:33:55;;;;;;;6.67;1.40;;;1.40;99.90;;;;;;5063326;28;20200;-61
2022/01/06 09:36:21;;;;;;;1.90;1.73;;;1.40;99.90;;;;;;5057298;28;20212;-61
2022/01/06 09:38:46;;;;;;;3.10;1.43;;;1.40;99.90;;;;;;5066800;28;20205;-61
2022/01/06 09:41:14;;;;;;;2.10;1.63;;;1.50;99.90;;;;;;5054533;28;20204;-61
2022/01/06 09:43:40;;;;;;;3.20;1.47;;;1.40;99.90;;;;;;5067044;28;20206;-61
2022/01/06 09:46:08;;;;;;;9.73;1.77;;;1.50;99.90;;;;;;5048847;28;20220;-61
2022/01/06 09:48:36;;;;;;;7.13;1.67;;;1.50;99.90;;;;;;5065622;28;20197;-61
2022/01/06 09:51:02;;;;;;;7.87;2.03;;;1.50;99.90;;;;;;5059834;28;20284;-61
2022/01/06 09:53:27;;;;;;;6.70;2.80;;;1.60;99.90;;;;;;5066314;28;20283;-61
2022/01/06 09:55:53;;;;;;;6.53;2.13;;;1.60;99.90;;;;;;5054108;28;20201;-62
2022/01/06 09:58:25;;;;;;;4.43;1.83;;;1.70;99.90;;;;;;5066422;28;20865;-61
2022/01/06 10:00:51;;;;;;;5.43;1.60;;;1.70;99.90;;;;;;5050790;28;20212;-60
2022/01/06 10:03:17;;;;;;;8.80;1.87;;;1.70;99.90;;;;;;5065853;28;20192;-61
2022/01/06 10:05:45;;;;;;;2.30;1.27;;;1.70;99.90;;;;;;5054118;28;20225;-60
2022/01/06 10:08:12;;;;;;;1.67;1.20;;;1.80;99.90;;;;;;5066889;28;20232;-62
2022/01/06 10:10:40;;;;;;;3.80;1.30;;;1.80;99.90;;;;;;5054400;28;20204;-61
2022/01/06 10:13:08;;;;;;;2.77;1.07;;;1.90;99.90;;;;;;5067539;28;20200;-61
2022/01/06 10:15:36;;;;;;;6.63;1.50;;;1.80;99.90;;;;;;5052926;28;20740;-63
2022/01/06 10:18:16;;;;;;;3.43;1.50;;;1.90;99.90;;;;;;5058155;28;20248;-61
2022/01/06 10:20:43;;;;;;;2.70;1.47;;;1.90;99.90;;;;;;5052328;28;20221;-63
2022/01/06 10:23:13;;;;;;;3.53;1.27;;;1.90;99.90;;;;;;5060192;28;20196;-61
2022/01/06 10:25:48;;;;;;;4.40;1.67;;;2.00;99.90;;;;;;5057081;28;20224;-62
2022/01/06 10:28:16;;;;;;;3.57;1.20;;;2.00;99.90;;;;;;5066721;28;20193;-62
2022/01/06 10:30:48;;;;;;;3.57;1.30;;;2.20;99.90;;;;;;5051676;28;20312;-63
2022/01/06 10:33:16;;;;;;;4.97;1.40;;;2.40;99.90;;;;;;5057466;28;20215;-63
2022/01/06 10:35:41;;;;;;;3.93;1.67;;;2.50;99.90;;;;;;5051860;28;20221;-62
2022/01/06 10:38:07;;;;;;;6.33;1.63;;;2.80;99.90;;;;;;5064759;28;20198;-63
2022/01/06 10:40:32;;;;;;;2.27;1.20;;;2.90;99.90;;;;;;5062592;28;20671;-62
2022/01/06 10:42:58;;;;;;;1.90;1.20;;;3.00;99.90;;;;;;5063994;28;20228;-62
2022/01/06 10:45:27;;;;;;;4.50;1.40;;;3.00;99.90;;;;;;5051363;28;20579;-63
2022/01/06 10:47:55;;;;;;;2.73;1.47;;;3.10;99.90;;;;;;5066006;28;20197;-62
2022/01/06 10:50:33;;;;;;;5.33;1.23;;;3.20;99.90;;;;;;5047983;28;20640;-63
2022/01/06 10:53:00;;;;;;;4.37;1.20;;;3.30;99.90;;;;;;5065580;28;20197;-61
2022/01/06 10:55:31;;;;;;;2.73;1.07;;;3.40;99.90;;;;;;5058776;28;20336;-63
2022/01/06 10:58:02;;;;;;;4.43;2.43;;;3.50;99.90;;;;;;5064927;28;20194;-62
2022/01/06 11:00:34;;;;;;;6.90;1.13;;;3.60;99.90;;;;;;5057313;28;20301;-63
2022/01/06 11:03:07;;;;;;;2.57;1.37;;;3.70;99.90;;;;;;5054763;28;20225;-62
2022/01/06 11:05:37;;;;;;;6.80;1.30;;;3.90;99.90;;;;;;5054731;28;20217;-62
2022/01/06 11:08:05;;;;;;;3.23;1.53;;;4.00;99.90;;;;;;5060315;28;20194;-62
2022/01/06 11:10:35;;;;;;;16.30;7.87;;;4.10;99.90;;;;;;5052093;28;20346;-62
2022/01/06 11:13:01;;;;;;;2.47;1.00;;;4.10;99.90;;;;;;5065300;28;20668;-61
2022/01/06 11:15:27;;;;;;;3.53;1.20;;;4.40;99.90;;;;;;5055698;28;20225;-62
2022/01/06 11:17:52;;;;;;;4.23;1.37;;;4.70;99.90;;;;;;5066665;28;20750;-61
2022/01/06 11:20:26;;;;;;;3.70;1.30;;;4.90;99.90;;;;;;5062552;28;20241;-61
2022/01/06 11:22:55;;;;;;;3.10;1.13;;;5.10;99.90;;;;;;5065309;28;20190;-62
2022/01/06 11:25:38;;;;;;;2.97;1.20;;;5.40;99.90;;;;;;5053592;28;20215;-61
2022/01/06 11:28:13;;;;;;;1.90;1.50;;;5.30;99.90;;;;;;5064792;28;20205;-61
2022/01/06 11:30:52;;;;;;;2.57;1.40;;;5.30;99.90;;;;;;5052434;28;20228;-62
2022/01/06 11:33:18;;;;;;;2.97;1.17;;;5.40;99.90;;;;;;5061674;28;20201;-62
2022/01/06 11:36:02;;;;;;;6.13;1.23;;;5.40;99.90;;;;;;5062802;28;20210;-62
2022/01/06 11:38:28;;;;;;;2.27;1.10;;;5.60;99.70;;;;;;5052739;28;20186;-63
2022/01/06 11:41:09;;;;;;;2.27;1.63;;;5.90;99.40;;;;;;5053980;28;20253;-62
2022/01/06 11:43:43;;;;;;;1.20;1.10;;;6.10;98.90;;;;;;5058551;28;20202;-63
2022/01/06 11:46:09;;;;;;;1.50;1.10;;;6.20;98.20;;;;;;5052968;28;20202;-62
2022/01/06 11:48:49;;;;;;;2.97;1.60;;;6.30;97.80;;;;;;5060905;28;20192;-62
2022/01/06 11:51:22;;;;;;;4.67;1.63;;;6.20;95.80;;;;;;5055735;28;20659;-62
2022/01/06 11:53:48;;;;;;;3.50;1.90;;;6.30;95.60;;;;;;5062880;28;20205;-62
2022/01/06 11:56:14;;;;;;;9.63;4.93;;;6.40;96.30;;;;;;5050153;28;20546;-62
2022/01/06 11:58:40;;;;;;;3.30;1.83;;;6.80;95.50;;;;;;5059968;28;20198;-62
2022/01/06 12:01:12;;;;;;;2.83;1.50;;;6.90;93.70;;;;;;5055025;28;20193;-62
2022/01/06 12:03:40;;;;;;;2.87;1.10;;;7.00;94.30;;;;;;5057533;28;20191;-62
2022/01/06 12:06:07;;;;;;;3.67;1.20;;;7.40;92.80;;;;;;5055214;28;20622;-63
2022/01/06 12:08:41;;;;;;;2.33;1.00;;;7.30;91.00;;;;;;5060927;28;20683;-62
2022/01/06 12:11:20;;;;;;;4.70;1.23;;;7.20;90.40;;;;;;5050506;28;20182;-62
2022/01/06 12:13:47;;;;;;;1.67;1.53;;;7.30;88.90;;;;;;5054614;28;21044;-62
2022/01/06 12:16:27;;;;;;;3.83;1.13;;;7.60;87.50;;;;;;5061990;28;20233;-63
2022/01/06 12:18:53;;;;;;;2.57;1.23;;;8.20;83.20;;;;;;5054964;28;20260;-63
2022/01/06 12:21:18;;;;;;;4.20;1.20;;;8.60;79.10;;;;;;5060399;28;20193;-63
2022/01/06 12:23:48;;;;;;;3.93;1.20;;;8.50;76.00;;;;;;5063802;28;20215;-63
2022/01/06 12:26:14;;;;;;;4.10;1.43;;;8.60;75.60;;;;;;5063685;28;20214;-62
2022/01/06 12:28:48;;;;;;;2.37;0.80;;;8.60;74.20;;;;;;5064335;28;20186;-62
2022/01/06 12:31:24;;;;;;;2.10;0.87;;;8.60;73.90;;;;;;5061288;28;20607;-63
2022/01/06 12:33:51;;;;;;;2.13;0.73;;;8.40;70.20;;;;;;5069613;28;20186;-62
2022/01/06 12:36:19;;;;;;;4.63;1.03;;;8.00;68.10;;;;;;5055258;28;20202;-62
2022/01/06 12:38:45;;;;;;;1.83;0.80;;;7.70;68.60;;;;;;5067669;28;20195;-63
2022/01/06 12:41:11;;;;;;;4.20;1.37;;;7.50;68.40;;;;;;5060154;28;20223;-62
2022/01/06 12:43:39;;;;;;;1.33;0.77;;;7.60;70.50;;;;;;5065495;28;20222;-62
2022/01/06 12:46:14;;;;;;;1.03;0.90;;;8.00;70.20;;;;;;5050618;28;20676;-62
2022/01/06 12:48:41;;;;;;;2.87;0.83;;;8.50;68.30;;;;;;5059363;28;20197;-61
2022/01/06 12:51:09;;;;;;;1.63;0.60;;;8.80;63.30;;;;;;5059467;28;20245;-62
2022/01/06 12:53:41;;;;;;;7.60;1.10;;;8.90;63.80;;;;;;5066258;28;20354;-62
2022/01/06 12:56:07;;;;;;;2.20;0.97;;;9.00;62.50;;;;;;5054944;28;20183;-62
2022/01/06 12:58:37;;;;;;;3.60;0.90;;;9.00;63.00;;;;;;5065609;28;20196;-63
2022/01/06 13:01:13;;;;;;;1.10;0.80;;;9.30;63.20;;;;;;5068789;28;20178;-62
2022/01/06 13:03:40;;;;;;;4.37;0.90;;;9.20;60.30;;;;;;5066087;28;20203;-62